Time;durP1;ratioP1;P1;durP2;ratioP2;P2;SDS_P1;SDS_P2;PMS_P1;PMS_P2;Temp;Humidity;BMP_temperature;BMP_pressure;BME280_temperature;BME280_humidity;BME280_pressure;Samples;Min_cycle;Max_cycle;Signal;HPM_P1;HPM_P2
2023/10/07 00:00:53;;;;;;;7.72;3.67;;;;;;;7.24;100.00;98122.22;5039892;28;20037;-64
2023/10/07 00:03:21;;;;;;;9.55;3.50;;;;;;;7.34;100.00;98120.97;5023850;28;20072;-64
2023/10/07 00:05:50;;;;;;;7.80;3.85;;;;;;;7.22;100.00;98124.28;5043397;28;20776;-63
2023/10/07 00:08:19;;;;;;;10.13;4.07;;;;;;;7.18;100.00;98130.34;5042729;28;20567;-65
2023/10/07 00:10:49;;;;;;;7.55;3.00;;;;;;;7.28;100.00;98120.78;5035848;28;20037;-64
2023/10/07 00:13:19;;;;;;;9.45;4.18;;;;;;;7.25;100.00;98131.13;5041672;28;20130;-64
2023/10/07 00:15:49;;;;;;;9.27;3.73;;;;;;;7.34;100.00;98123.66;5043113;28;20562;-65
2023/10/07 00:18:18;;;;;;;7.05;3.33;;;;;;;7.35;100.00;98128.81;5037336;28;20294;-63
2023/10/07 00:20:52;;;;;;;8.85;3.70;;;;;;;7.37;100.00;98134.00;5049133;28;20044;-64
2023/10/07 00:23:22;;;;;;;10.98;3.50;;;;;;;7.26;100.00;98127.41;5037500;28;20140;-64
2023/10/07 00:25:53;;;;;;;9.07;3.78;;;;;;;7.22;100.00;98131.56;5042103;28;20048;-64
2023/10/07 00:28:35;;;;;;;9.45;3.75;;;;;;;7.12;100.00;98130.13;5045283;28;20112;-64
2023/10/07 00:31:12;;;;;;;9.32;3.47;;;;;;;7.01;100.00;98120.00;5028524;28;20495;-65
2023/10/07 00:34:27;;;;;;;11.07;4.22;;;;;;;6.94;100.00;98119.19;5039352;28;20098;-64
2023/10/07 00:39:07;;;;;;;8.45;4.00;;;;;;;6.98;100.00;98107.78;5043267;28;20091;-64
2023/10/07 00:41:45;;;;;;;9.05;3.97;;;;;;;7.12;100.00;98103.19;5040471;28;20044;-64
2023/10/07 00:49:39;;;;;;;;;;;;;;;7.08;100.00;98090.38;5040811;28;20648;-63
2023/10/07 00:52:12;;;;;;;9.52;3.75;;;;;;;7.08;100.00;98088.47;5033133;28;19933;-63
2023/10/07 00:54:50;;;;;;;7.50;3.45;;;;;;;7.19;100.00;98094.28;5038369;28;20069;-64
2023/10/07 00:57:24;;;;;;;9.55;3.53;;;;;;;7.11;100.00;98093.47;5041852;28;20420;-65
2023/10/07 00:59:51;;;;;;;8.48;3.58;;;;;;;7.14;100.00;98087.66;5047503;28;20068;-64
2023/10/07 01:02:30;;;;;;;7.18;3.55;;;;;;;7.07;100.00;98089.53;5040918;28;20040;-63
2023/10/07 01:05:00;;;;;;;9.50;4.22;;;;;;;6.99;100.00;98082.53;5034567;28;20091;-65
2023/10/07 01:07:27;;;;;;;9.30;3.90;;;;;;;6.97;100.00;98084.56;5041414;28;20044;-65
2023/10/07 01:10:00;;;;;;;10.07;3.50;;;;;;;6.78;100.00;98078.19;5042854;28;20511;-63
2023/10/07 01:12:35;;;;;;;10.40;3.83;;;;;;;6.73;100.00;98075.31;5031986;28;20492;-64
2023/10/07 01:15:04;;;;;;;11.13;4.07;;;;;;;6.59;100.00;98067.25;5041345;28;20114;-63
2023/10/07 01:17:31;;;;;;;10.20;3.60;;;;;;;6.57;100.00;98068.50;5035597;28;20049;-64
2023/10/07 01:20:03;;;;;;;9.20;4.38;;;;;;;6.64;100.00;98066.66;5032444;28;20041;-64
2023/10/07 01:22:35;;;;;;;11.07;4.28;;;;;;;6.55;100.00;98060.63;5045861;28;20079;-65
2023/10/07 01:25:09;;;;;;;8.27;3.35;;;;;;;6.53;100.00;98061.88;5033126;28;20125;-64
2023/10/07 01:27:41;;;;;;;7.13;3.33;;;;;;;6.49;100.00;98056.09;5041838;28;20601;-65
2023/10/07 01:30:16;;;;;;;9.38;3.55;;;;;;;6.56;100.00;98050.72;5038758;28;20041;-63
2023/10/07 01:35:33;;;;;;;9.27;3.60;;;;;;;6.59;100.00;98056.50;5036056;28;20037;-64
2023/10/07 01:38:00;;;;;;;8.27;3.33;;;;;;;6.45;100.00;98049.50;5031882;28;20043;-64
2023/10/07 01:40:31;;;;;;;12.68;4.18;;;;;;;6.42;100.00;98041.84;5030518;28;20136;-64
2023/10/07 01:42:58;;;;;;;9.30;3.95;;;;;;;6.45;100.00;98054.88;5033185;28;20057;-64
2023/10/07 01:45:34;;;;;;;9.73;4.20;;;;;;;6.49;100.00;98062.31;5038630;28;20037;-64
2023/10/07 01:48:07;;;;;;;8.32;3.58;;;;;;;6.55;100.00;98057.13;5039035;28;20045;-63
2023/10/07 01:50:40;;;;;;;8.43;3.53;;;;;;;6.47;100.00;98055.47;5045791;28;20041;-65
2023/10/07 01:53:08;;;;;;;9.30;3.30;;;;;;;6.47;100.00;98047.41;5041634;28;20041;-64
2023/10/07 01:55:45;;;;;;;8.07;3.63;;;;;;;6.47;100.00;98056.31;5039301;28;20060;-64
2023/10/07 01:58:14;;;;;;;11.27;4.53;;;;;;;6.44;100.00;98058.56;5044163;28;20501;-64
2023/10/07 02:00:45;;;;;;;8.90;3.65;;;;;;;6.35;100.00;98061.47;5033175;28;20140;-65
2023/10/07 02:03:13;;;;;;;11.55;4.40;;;;;;;6.36;100.00;98065.84;5032896;28;20037;-64
2023/10/07 02:05:46;;;;;;;9.48;3.80;;;;;;;6.29;100.00;98056.94;5034495;28;20123;-65
2023/10/07 02:08:22;;;;;;;9.18;4.18;;;;;;;6.21;100.00;98059.84;5039493;28;20040;-64
2023/10/07 02:10:51;;;;;;;6.75;3.28;;;;;;;6.26;100.00;98054.66;5032558;28;20045;-63
2023/10/07 02:13:19;;;;;;;7.55;3.45;;;;;;;6.38;100.00;98053.00;5042407;28;20283;-63
2023/10/07 02:15:57;;;;;;;9.27;3.63;;;;;;;6.45;100.00;98057.56;5043783;28;20135;-64
2023/10/07 02:18:27;;;;;;;8.32;3.25;;;;;;;6.41;100.00;98065.19;5033365;28;20041;-64
2023/10/07 02:21:12;;;;;;;12.32;3.63;;;;;;;6.38;100.00;98069.13;5042883;28;20032;-63
2023/10/07 02:26:14;;;;;;;11.75;3.70;;;;;;;6.31;100.00;98072.88;5038492;28;20040;-64
2023/10/07 02:28:43;;;;;;;8.70;3.90;;;;;;;6.29;100.00;98073.06;5034921;28;20053;-64
2023/10/07 02:31:19;;;;;;;11.57;3.67;;;;;;;6.06;100.00;98085.06;5035891;28;20046;-64
2023/10/07 02:33:57;;;;;;;9.65;3.53;;;;;;;6.09;100.00;98089.19;5044613;28;20035;-64
2023/10/07 02:36:31;;;;;;;8.60;3.95;;;;;;;6.09;100.00;98094.59;5033274;28;20041;-63
2023/10/07 02:39:04;;;;;;;7.57;3.67;;;;;;;6.08;100.00;98091.06;5040871;28;20094;-63
2023/10/07 02:41:34;;;;;;;9.45;3.50;;;;;;;6.09;100.00;98090.00;5046798;28;20055;-64
2023/10/07 02:44:08;;;;;;;8.48;3.72;;;;;;;6.18;100.00;98092.50;5045666;28;20508;-63
2023/10/07 02:46:35;;;;;;;7.57;3.53;;;;;;;6.11;100.00;98093.34;5040003;28;20044;-65
2023/10/07 02:49:06;;;;;;;8.93;4.15;;;;;;;6.13;100.00;98089.59;5029911;28;20037;-63
2023/10/07 02:51:34;;;;;;;9.85;3.83;;;;;;;6.15;100.00;98098.31;5035219;28;20056;-64
2023/10/07 02:54:06;;;;;;;9.85;3.67;;;;;;;6.16;100.00;98100.78;5035996;28;20037;-64
2023/10/07 02:56:43;;;;;;;9.30;4.15;;;;;;;6.02;100.00;98091.84;5040550;28;20551;-63
2023/10/07 02:59:29;;;;;;;7.80;3.55;;;;;;;6.10;100.00;98101.59;5046813;28;20098;-64
2023/10/07 03:02:12;;;;;;;10.55;3.33;;;;;;;6.13;100.00;98087.75;5033523;28;20056;-63
2023/10/07 03:04:46;;;;;;;10.55;3.67;;;;;;;6.07;100.00;98085.88;5042238;28;20140;-64
2023/10/07 03:07:14;;;;;;;9.23;3.63;;;;;;;6.10;100.00;98085.47;5047080;28;20065;-64
2023/10/07 03:09:55;;;;;;;8.20;3.10;;;;;;;6.10;100.00;98080.09;5035349;28;20690;-63
2023/10/07 03:12:27;;;;;;;9.13;3.63;;;;;;;5.99;100.00;98065.38;5030091;28;20071;-64
2023/10/07 03:15:00;;;;;;;7.97;3.17;;;;;;;5.95;100.00;98074.88;5045210;28;20044;-64
2023/10/07 03:17:39;;;;;;;10.02;4.35;;;;;;;5.82;100.00;98071.13;5035102;28;20065;-64
2023/10/07 03:28:36;;;;;;;8.98;3.65;;;;;;;5.77;100.00;98067.41;5035279;28;20044;-64
2023/10/07 03:31:11;;;;;;;7.05;3.35;;;;;;;5.72;100.00;98084.94;5032320;28;20041;-63
2023/10/07 03:33:48;;;;;;;10.48;3.17;;;;;;;5.71;100.00;98085.16;5039558;28;20041;-64
2023/10/07 03:39:09;;;;;;;7.45;3.25;;;;;;;5.69;100.00;98103.34;5045113;28;20098;-64
2023/10/07 03:41:41;;;;;;;8.73;3.55;;;;;;;5.78;100.00;98107.50;5039985;28;20554;-63
2023/10/07 03:44:08;;;;;;;6.28;3.13;;;;;;;5.84;100.00;98119.31;5039425;28;20505;-63
2023/10/07 03:46:35;;;;;;;7.63;3.42;;;;;;;5.89;100.00;98132.16;5038847;28;20042;-64
2023/10/07 03:49:06;;;;;;;9.63;3.78;;;;;;;5.70;100.00;98139.94;5038501;28;20489;-64
2023/10/07 03:51:35;;;;;;;8.02;2.53;;;;;;;5.26;100.00;98134.78;5036960;28;20073;-64
2023/10/07 03:54:04;;;;;;;8.82;3.25;;;;;;;5.34;100.00;98131.94;5041500;28;20037;-64
2023/10/07 03:56:31;;;;;;;8.65;3.50;;;;;;;5.08;100.00;98140.66;5036115;28;20033;-64
2023/10/07 03:58:59;;;;;;;8.65;3.35;;;;;;;4.98;100.00;98138.38;5037591;28;20119;-63
2023/10/07 04:01:27;;;;;;;8.57;4.07;;;;;;;4.98;100.00;98141.03;5039834;28;20041;-63
2023/10/07 04:03:59;;;;;;;8.80;4.18;;;;;;;4.91;100.00;98126.75;5047197;28;20055;-64
2023/10/07 04:06:34;;;;;;;9.13;3.20;;;;;;;4.99;100.00;98120.38;5040820;28;20048;-64
2023/10/07 04:09:07;;;;;;;9.45;4.03;;;;;;;4.92;100.00;98129.22;5041623;28;20049;-64
2023/10/07 04:11:38;;;;;;;7.85;3.03;;;;;;;5.04;100.00;98132.19;5038095;28;20045;-64
2023/10/07 04:14:19;;;;;;;7.80;3.28;;;;;;;5.15;100.00;98113.84;5037064;28;20155;-63
2023/10/07 04:16:49;;;;;;;8.48;3.28;;;;;;;5.29;100.00;98110.22;5032303;28;20041;-64
2023/10/07 04:21:43;;;;;;;9.40;3.47;;;;;;;5.27;100.00;98111.47;5032957;28;20043;-64
2023/10/07 04:24:11;;;;;;;9.70;3.40;;;;;;;5.33;100.00;98118.72;5032856;28;20041;-64
2023/10/07 04:26:39;;;;;;;9.25;3.55;;;;;;;5.16;100.00;98108.28;5036069;28;20444;-64
2023/10/07 04:29:16;;;;;;;8.63;3.50;;;;;;;4.95;100.00;98087.75;5034169;28;20677;-64
2023/10/07 04:31:47;;;;;;;10.13;3.60;;;;;;;5.17;100.00;98101.09;5030522;28;20050;-63
2023/10/07 04:34:18;;;;;;;9.82;3.80;;;;;;;5.36;100.00;98112.09;5038080;28;20037;-63
2023/10/07 04:39:37;;;;;;;9.30;3.30;;;;;;;5.04;100.00;98121.47;5028631;28;20037;-64
2023/10/07 04:42:07;;;;;;;9.55;3.20;;;;;;;5.10;100.00;98127.06;5035883;28;20064;-64
2023/10/07 04:49:57;;;;;;;8.27;3.50;;;;;;;5.33;100.00;98114.19;5037000;28;20683;-65
2023/10/07 04:52:30;;;;;;;;;;;;;;;5.40;100.00;98119.56;5042208;28;20121;-63
2023/10/07 04:55:01;;;;;;;8.32;3.15;;;;;;;5.14;100.00;98131.00;5040657;28;19921;-63
2023/10/07 04:58:15;;;;;;;8.57;3.65;;;;;;;5.19;100.00;98124.00;5040980;28;20028;-63
2023/10/07 05:03:03;;;;;;;9.10;3.58;;;;;;;4.97;100.00;98117.91;5036173;28;20160;-64
2023/10/07 05:05:33;;;;;;;10.15;4.18;;;;;;;4.95;100.00;98117.28;5039016;28;20044;-64
2023/10/07 05:08:17;;;;;;;8.50;3.30;;;;;;;4.95;100.00;98125.31;5034712;28;20483;-64
2023/10/07 05:10:52;;;;;;;10.82;3.85;;;;;;;5.03;100.00;98125.16;5034142;28;20054;-65
2023/10/07 05:13:20;;;;;;;8.10;3.17;;;;;;;5.10;100.00;98129.75;5042582;28;20056;-64
2023/10/07 05:15:47;;;;;;;9.75;3.58;;;;;;;4.90;100.00;98133.16;5047073;28;20041;-64
2023/10/07 05:18:16;;;;;;;9.20;2.95;;;;;;;4.95;100.00;98125.31;5032454;28;20048;-63
2023/10/07 05:20:46;;;;;;;8.75;3.25;;;;;;;5.04;100.00;98126.81;5031915;28;20595;-64
2023/10/07 05:23:14;;;;;;;8.70;3.53;;;;;;;4.97;100.00;98125.94;5043109;28;20439;-64
2023/10/07 05:25:50;;;;;;;7.60;3.45;;;;;;;4.98;100.00;98129.47;5037763;28;20096;-65
2023/10/07 05:28:22;;;;;;;9.90;3.80;;;;;;;5.04;100.00;98137.56;5037467;28;20042;-64
2023/10/07 05:30:51;;;;;;;8.77;3.83;;;;;;;5.12;100.00;98133.88;5041010;28;20052;-63
2023/10/07 05:33:25;;;;;;;8.00;3.17;;;;;;;5.13;100.00;98129.34;5038799;28;20037;-63
2023/10/07 05:36:13;;;;;;;9.25;3.88;;;;;;;5.25;100.00;98133.13;5034061;28;20111;-64
2023/10/07 05:38:44;;;;;;;7.68;3.40;;;;;;;5.36;100.00;98141.66;5029817;28;20045;-64
2023/10/07 05:41:15;;;;;;;10.10;3.65;;;;;;;5.31;100.00;98140.38;5042944;28;20124;-64
2023/10/07 05:43:48;;;;;;;9.13;3.38;;;;;;;5.38;100.00;98132.34;5036755;28;20037;-63
2023/10/07 05:46:19;;;;;;;7.70;3.85;;;;;;;5.32;100.00;98134.00;5045760;28;20052;-64
2023/10/07 05:48:47;;;;;;;7.70;3.42;;;;;;;5.44;100.00;98126.22;5033418;28;20535;-64
2023/10/07 05:51:14;;;;;;;8.65;4.03;;;;;;;5.42;100.00;98117.50;5033961;28;20050;-65
2023/10/07 05:53:51;;;;;;;8.73;3.63;;;;;;;5.45;100.00;98127.00;5040541;28;20500;-66
2023/10/07 05:56:18;;;;;;;8.82;4.20;;;;;;;5.37;100.00;98114.59;5032010;28;20071;-63
2023/10/07 05:58:48;;;;;;;8.30;3.42;;;;;;;5.31;100.00;98120.78;5036927;28;20049;-63
2023/10/07 06:01:16;;;;;;;8.38;3.53;;;;;;;5.26;100.00;98128.56;5037784;28;20425;-64
2023/10/07 06:03:44;;;;;;;7.70;3.20;;;;;;;5.27;100.00;98141.00;5030761;28;20117;-64
2023/10/07 06:06:10;;;;;;;7.00;3.67;;;;;;;5.24;100.00;98131.50;5040184;28;20041;-63
2023/10/07 06:08:37;;;;;;;8.90;3.22;;;;;;;5.38;100.00;98137.72;5037974;28;20560;-65
2023/10/07 06:11:04;;;;;;;7.78;3.85;;;;;;;5.48;100.00;98142.75;5044462;28;20041;-64
2023/10/07 06:13:33;;;;;;;9.40;3.65;;;;;;;5.47;100.00;98144.63;5033853;28;20052;-64
2023/10/07 06:16:04;;;;;;;10.52;4.05;;;;;;;5.51;100.00;98141.50;5035378;28;20073;-63
2023/10/07 06:18:34;;;;;;;14.23;6.07;;;;;;;5.47;100.00;98123.13;5038786;28;20099;-63
2023/10/07 06:23:48;;;;;;;13.57;5.82;;;;;;;5.81;100.00;98125.91;5036096;28;20033;-64
2023/10/07 06:26:15;;;;;;;11.13;5.28;;;;;;;5.94;100.00;98127.00;5040857;28;20048;-63
2023/10/07 06:28:44;;;;;;;14.85;5.43;;;;;;;6.05;100.00;98123.72;5037002;28;20049;-63
2023/10/07 06:31:12;;;;;;;9.05;4.05;;;;;;;6.28;100.00;98127.91;5034210;28;20045;-63
2023/10/07 06:33:44;;;;;;;9.98;4.82;;;;;;;6.49;100.00;98129.56;5033274;28;20049;-63
2023/10/07 06:36:12;;;;;;;9.45;4.05;;;;;;;6.64;100.00;98133.94;5036695;28;20384;-62
2023/10/07 06:38:51;;;;;;;8.43;4.45;;;;;;;6.83;100.00;98139.50;5037892;28;20053;-63
2023/10/07 06:41:19;;;;;;;11.93;4.60;;;;;;;6.98;100.00;98150.03;5034033;28;20642;-63
2023/10/07 06:43:53;;;;;;;8.52;4.10;;;;;;;7.13;100.00;98158.72;5029872;28;20060;-63
2023/10/07 06:46:21;;;;;;;8.77;4.28;;;;;;;7.25;100.00;98161.59;5039771;28;20128;-63
2023/10/07 06:48:49;;;;;;;7.65;3.72;;;;;;;7.34;100.00;98156.78;5033532;28;20064;-63
2023/10/07 06:51:16;;;;;;;7.82;3.90;;;;;;;7.51;100.00;98159.03;5035978;28;20049;-64
2023/10/07 06:53:43;;;;;;;10.93;4.57;;;;;;;7.60;100.00;98173.09;5038971;28;20046;-63
2023/10/07 06:56:20;;;;;;;8.75;4.32;;;;;;;7.57;100.00;98182.44;5033793;28;20695;-63
2023/10/07 06:58:53;;;;;;;12.15;4.03;;;;;;;7.62;100.00;98182.63;5044354;28;20055;-62
2023/10/07 07:04:24;;;;;;;9.23;4.03;;;;;;;7.87;100.00;98179.22;5021772;28;20060;-63
2023/10/07 07:07:10;;;;;;;8.93;3.83;;;;;;;7.96;100.00;98184.38;5029210;28;20059;-63
2023/10/07 07:09:42;;;;;;;8.95;3.65;;;;;;;8.04;100.00;98184.13;5026595;28;20116;-63
2023/10/07 07:12:11;;;;;;;9.15;3.97;;;;;;;8.08;100.00;98182.66;5030069;28;20148;-62
2023/10/07 07:14:46;;;;;;;8.18;3.38;;;;;;;8.22;100.00;98190.66;5033628;28;20281;-63
2023/10/07 07:22:44;;;;;;;9.73;4.35;;;;;;;8.43;100.00;98176.81;5042363;28;20049;-62
2023/10/07 07:25:29;;;;;;;9.57;3.85;;;;;;;8.80;100.00;98175.31;5039318;28;20482;-62
2023/10/07 07:27:59;;;;;;;12.38;4.65;;;;;;;9.19;99.75;98177.91;5032834;28;20133;-63
2023/10/07 07:30:35;;;;;;;7.47;3.15;;;;;;;9.46;99.42;98186.56;5042040;28;20440;-64
2023/10/07 07:33:08;;;;;;;12.25;3.97;;;;;;;9.63;97.86;98180.56;5035806;28;20144;-63
2023/10/07 07:35:43;;;;;;;8.13;3.88;;;;;;;9.71;98.52;98179.41;5037193;28;20119;-63
2023/10/07 07:38:30;;;;;;;8.73;3.40;;;;;;;9.83;98.08;98180.31;5036485;28;20037;-63
2023/10/07 07:41:03;;;;;;;8.95;3.70;;;;;;;10.00;97.18;98185.09;5038995;28;20045;-64
2023/10/07 07:43:31;;;;;;;7.97;3.80;;;;;;;10.16;97.22;98178.22;5035783;28;20034;-63
2023/10/07 07:46:26;;;;;;;10.13;4.00;;;;;;;10.36;95.05;98191.47;5038260;28;20045;-64
2023/10/07 07:48:54;;;;;;;9.90;3.53;;;;;;;10.52;94.31;98189.22;5028028;28;20604;-64
2023/10/07 07:51:24;;;;;;;7.13;3.05;;;;;;;10.66;93.40;98173.59;5042411;28;20044;-63
2023/10/07 07:53:52;;;;;;;9.85;3.58;;;;;;;10.82;93.67;98169.38;5025965;28;20044;-64
2023/10/07 07:56:19;;;;;;;9.93;4.13;;;;;;;10.92;92.63;98177.72;5032673;28;20049;-63
2023/10/07 07:58:48;;;;;;;7.40;3.10;;;;;;;11.03;92.22;98167.16;5040961;28;20636;-63
2023/10/07 08:01:28;;;;;;;7.78;2.83;;;;;;;11.12;92.31;98179.28;5035972;28;20037;-63
2023/10/07 08:04:03;;;;;;;8.68;3.40;;;;;;;11.19;89.46;98190.84;5037368;28;20075;-64
2023/10/07 08:06:31;;;;;;;9.68;3.60;;;;;;;11.32;90.04;98187.03;5031767;28;20033;-64
2023/10/07 08:08:58;;;;;;;9.32;3.58;;;;;;;11.45;89.34;98185.16;5035191;28;20040;-63
2023/10/07 08:11:24;;;;;;;8.68;3.67;;;;;;;11.56;88.44;98183.47;5042909;28;20098;-64
2023/10/07 08:13:53;;;;;;;5.80;2.83;;;;;;;11.63;88.09;98178.75;5034089;28;20065;-64
2023/10/07 08:16:20;;;;;;;8.50;3.17;;;;;;;11.82;85.22;98197.59;5039479;28;20504;-64
2023/10/07 08:18:54;;;;;;;7.80;3.20;;;;;;;11.87;86.18;98200.41;5030014;28;22243;-64
2023/10/07 08:21:28;;;;;;;7.97;3.20;;;;;;;11.96;85.76;98203.56;5033264;28;20037;-64
2023/10/07 08:23:54;;;;;;;8.57;3.28;;;;;;;12.06;85.31;98203.78;5038122;28;20090;-63
2023/10/07 08:26:23;;;;;;;9.30;2.92;;;;;;;12.20;84.66;98204.34;5029835;28;20697;-63
2023/10/07 08:31:29;;;;;;;8.77;3.08;;;;;;;12.35;80.96;98194.84;5046157;28;20037;-64
2023/10/07 08:36:47;;;;;;;9.93;3.58;;;;;;;12.42;80.78;98186.56;5047553;28;20048;-64
2023/10/07 08:39:18;;;;;;;9.65;3.20;;;;;;;12.44;81.70;98192.56;5035622;28;20049;-64
2023/10/07 08:41:52;;;;;;;8.43;3.10;;;;;;;12.61;79.96;98189.88;5041100;28;20482;-64
2023/10/07 08:44:28;;;;;;;9.95;3.35;;;;;;;12.69;80.47;98203.06;5043708;28;20076;-64
2023/10/07 08:47:03;;;;;;;7.30;2.97;;;;;;;12.80;80.12;98197.78;5035028;28;20036;-64
2023/10/07 08:49:35;;;;;;;7.30;2.90;;;;;;;12.97;80.87;98192.38;5043224;28;20636;-65
2023/10/07 08:52:08;;;;;;;8.20;3.25;;;;;;;13.12;78.96;98205.38;5041094;28;20503;-64
2023/10/07 08:54:38;;;;;;;9.88;3.28;;;;;;;13.24;79.77;98195.22;5039775;28;20042;-64
2023/10/07 08:57:09;;;;;;;7.43;2.92;;;;;;;13.32;79.41;98199.44;5037405;28;20123;-64
2023/10/07 08:59:38;;;;;;;6.20;2.72;;;;;;;13.35;79.53;98193.47;5045994;28;20067;-63
2023/10/07 09:02:04;;;;;;;8.00;3.33;;;;;;;13.43;79.73;98192.22;5041626;28;20050;-64
2023/10/07 09:04:31;;;;;;;7.25;2.72;;;;;;;13.51;78.47;98201.88;5041127;28;20304;-64
2023/10/07 09:07:11;;;;;;;9.75;3.15;;;;;;;13.63;79.78;98183.56;5038069;28;20511;-63
2023/10/07 09:09:39;;;;;;;8.90;3.13;;;;;;;13.74;80.01;98180.94;5031816;28;20661;-63
2023/10/07 09:12:49;;;;;;;6.85;3.00;;;;;;;13.88;78.68;98197.72;5032375;28;20527;-64
2023/10/07 09:15:07;;;;;;;6.53;3.45;;;;;;;13.98;78.25;98199.75;5043543;28;20504;-64
2023/10/07 09:17:35;;;;;;;8.68;3.35;;;;;;;14.10;78.76;98202.34;5042723;28;20045;-63
2023/10/07 09:20:06;;;;;;;8.45;3.13;;;;;;;14.20;77.72;98205.19;5036630;28;20037;-64
2023/10/07 09:22:34;;;;;;;6.53;2.83;;;;;;;14.29;77.39;98209.13;5045874;28;20653;-63
2023/10/07 09:25:17;;;;;;;5.95;2.70;;;;;;;14.36;77.06;98216.25;5033823;28;20461;-64
2023/10/07 09:27:55;;;;;;;7.30;2.70;;;;;;;14.44;75.57;98213.91;5044755;28;20149;-65
2023/10/07 09:33:13;;;;;;;6.05;2.80;;;;;;;14.67;74.30;98206.47;5042678;28;20072;-64
2023/10/07 09:35:44;;;;;;;8.85;3.05;;;;;;;14.67;73.70;98206.47;5044453;28;20138;-64
2023/10/07 09:38:33;;;;;;;7.17;2.93;;;;;;;14.74;72.76;98216.38;5036296;28;20049;-65
2023/10/07 09:41:12;;;;;;;7.15;2.30;;;;;;;14.79;73.02;98213.72;5040623;28;20041;-64
2023/10/07 09:43:51;;;;;;;8.57;2.72;;;;;;;14.85;69.87;98201.75;5043017;28;20558;-64
2023/10/07 09:46:25;;;;;;;6.80;3.00;;;;;;;15.00;71.15;98203.78;5045221;28;20041;-61
2023/10/07 09:48:57;;;;;;;6.82;2.90;;;;;;;15.07;71.29;98214.47;5043563;28;20044;-61
2023/10/07 09:51:34;;;;;;;5.85;2.60;;;;;;;15.19;70.27;98209.66;5035065;28;20045;-62
2023/10/07 09:54:02;;;;;;;6.65;2.72;;;;;;;15.28;70.02;98220.91;5045700;28;20049;-61
2023/10/07 09:56:43;;;;;;;11.93;4.03;;;;;;;15.41;68.73;98221.56;5038898;28;20538;-62
2023/10/07 09:59:40;;;;;;;10.32;2.88;;;;;;;15.51;68.23;98218.88;5041653;28;20045;-61
2023/10/07 10:02:43;;;;;;;8.00;2.70;;;;;;;15.58;67.49;98213.19;5037029;28;20103;-61
2023/10/07 10:05:28;;;;;;;6.85;2.60;;;;;;;15.75;68.38;98215.75;5036989;28;20065;-62
2023/10/07 10:08:11;;;;;;;6.80;2.75;;;;;;;15.92;65.25;98212.81;5031586;28;20069;-61
2023/10/07 10:10:44;;;;;;;7.82;2.50;;;;;;;15.99;65.19;98213.44;5035227;28;20050;-62
2023/10/07 10:13:29;;;;;;;7.47;2.78;;;;;;;16.12;66.16;98217.59;5044898;28;20045;-61
2023/10/07 10:16:04;;;;;;;7.40;2.80;;;;;;;16.15;66.06;98207.19;5037035;28;20592;-61
2023/10/07 10:18:38;;;;;;;6.55;2.30;;;;;;;16.14;65.92;98206.38;5033306;28;20103;-61
2023/10/07 10:21:12;;;;;;;6.18;2.65;;;;;;;16.23;65.93;98212.16;5040975;28;20049;-62
2023/10/07 10:23:40;;;;;;;7.20;2.20;;;;;;;16.22;64.97;98213.25;5035843;28;20102;-62
2023/10/07 10:26:24;;;;;;;5.90;2.28;;;;;;;16.41;65.32;98215.47;5037179;28;20049;-62
2023/10/07 10:29:04;;;;;;;7.07;2.60;;;;;;;16.56;65.33;98204.56;5043517;28;20044;-61
2023/10/07 10:31:32;;;;;;;6.43;2.70;;;;;;;16.75;66.02;98209.50;5034815;28;20161;-62
2023/10/07 10:34:08;;;;;;;6.93;2.58;;;;;;;16.71;65.16;98205.69;5039492;28;20044;-62
2023/10/07 10:36:41;;;;;;;6.00;2.33;;;;;;;16.70;64.47;98201.31;5041802;28;20138;-62
2023/10/07 10:39:25;;;;;;;6.60;2.42;;;;;;;16.88;64.64;98200.75;5035043;28;20048;-62
2023/10/07 10:42:13;;;;;;;6.32;2.53;;;;;;;16.90;64.07;98192.28;5039438;28;20692;-61
2023/10/07 10:44:46;;;;;;;5.80;2.17;;;;;;;17.11;64.35;98198.63;5036009;28;20044;-61
2023/10/07 10:47:16;;;;;;;5.10;2.22;;;;;;;17.02;62.44;98197.47;5042505;28;20040;-61
2023/10/07 10:49:44;;;;;;;5.93;1.95;;;;;;;17.14;64.50;98200.78;5041019;28;20045;-61
2023/10/07 10:52:15;;;;;;;6.10;2.13;;;;;;;17.13;64.06;98195.59;5036897;28;20052;-61
2023/10/07 10:54:42;;;;;;;;;;;;;;;17.19;63.02;98201.88;5029372;28;20056;-61
2023/10/07 10:57:13;;;;;;;6.82;2.13;;;;;;;17.20;62.89;98198.88;5037824;28;20252;-62
2023/10/07 10:59:42;;;;;;;7.28;1.95;;;;;;;17.27;63.40;98191.22;5031483;28;20076;-61
2023/10/07 11:02:17;;;;;;;6.28;2.10;;;;;;;17.27;62.68;98188.47;5038052;28;20534;-62
2023/10/07 11:04:45;;;;;;;4.43;1.88;;;;;;;17.33;62.55;98182.97;5036648;28;20037;-62
2023/10/07 11:07:14;;;;;;;5.20;1.73;;;;;;;17.24;62.90;98188.19;5040732;28;20048;-62
2023/10/07 11:09:48;;;;;;;4.55;2.08;;;;;;;17.32;62.42;98192.28;5032502;28;20520;-61
2023/10/07 11:12:17;;;;;;;8.40;2.45;;;;;;;17.34;62.77;98184.63;5038641;28;20151;-62
2023/10/07 11:14:48;;;;;;;5.38;1.95;;;;;;;17.28;62.22;98176.41;5035058;28;20053;-61
2023/10/07 11:17:15;;;;;;;5.28;2.13;;;;;;;17.27;61.73;98177.53;5032852;28;20037;-61
2023/10/07 11:19:44;;;;;;;7.78;2.13;;;;;;;17.26;62.87;98169.59;5036317;28;20119;-61
2023/10/07 11:22:13;;;;;;;5.70;2.03;;;;;;;17.28;63.89;98172.84;5035473;28;20582;-61
2023/10/07 11:24:40;;;;;;;6.78;1.83;;;;;;;17.32;62.83;98167.66;5045687;28;20091;-61
2023/10/07 11:27:08;;;;;;;4.95;2.10;;;;;;;17.38;61.72;98164.63;5042615;28;20037;-61
2023/10/07 11:29:36;;;;;;;6.60;2.50;;;;;;;17.33;63.50;98159.19;5032882;28;20060;-62
2023/10/07 11:32:07;;;;;;;6.53;1.90;;;;;;;17.42;62.17;98163.00;5043007;28;20047;-61
2023/10/07 11:34:37;;;;;;;8.48;2.50;;;;;;;17.54;62.98;98159.94;5039660;28;20507;-64
2023/10/07 11:37:09;;;;;;;5.68;2.15;;;;;;;17.53;61.71;98171.16;5036493;28;20041;-64
2023/10/07 11:39:43;;;;;;;4.70;2.10;;;;;;;17.54;61.64;98170.88;5025622;28;20050;-63
2023/10/07 11:42:11;;;;;;;6.80;2.17;;;;;;;17.68;60.55;98167.56;5037213;28;20041;-61
2023/10/07 11:44:38;;;;;;;4.32;1.60;;;;;;;17.75;61.31;98162.59;5040919;28;20630;-61
2023/10/07 11:47:10;;;;;;;4.03;1.63;;;;;;;17.87;62.06;98158.72;5035392;28;20063;-61
2023/10/07 11:49:37;;;;;;;4.63;2.17;;;;;;;17.87;60.97;98165.00;5037045;28;20512;-63
2023/10/07 11:52:05;;;;;;;5.75;2.15;;;;;;;17.94;61.33;98164.72;5033903;28;20053;-63
2023/10/07 11:54:35;;;;;;;5.45;1.90;;;;;;;17.96;59.67;98162.53;5048858;28;20037;-64
2023/10/07 11:57:04;;;;;;;7.30;2.43;;;;;;;17.96;59.90;98164.44;5033950;28;20049;-63
2023/10/07 11:59:34;;;;;;;6.00;2.25;;;;;;;17.98;60.33;98159.50;5041134;28;20748;-64
2023/10/07 12:02:01;;;;;;;6.00;2.10;;;;;;;17.94;60.70;98156.50;5035352;28;20059;-63
2023/10/07 12:04:33;;;;;;;6.95;1.92;;;;;;;18.01;60.75;98157.00;5034974;28;20056;-63
2023/10/07 12:06:59;;;;;;;5.03;1.95;;;;;;;18.07;60.94;98158.59;5043670;28;20048;-63
2023/10/07 12:09:27;;;;;;;5.25;2.10;;;;;;;17.97;61.02;98146.88;5039233;28;20055;-63
2023/10/07 12:11:54;;;;;;;5.25;1.73;;;;;;;17.91;59.74;98148.84;5036020;28;20053;-63
2023/10/07 12:14:22;;;;;;;5.45;2.10;;;;;;;17.93;58.85;98157.59;5036658;28;20127;-59
2023/10/07 12:16:49;;;;;;;4.88;1.95;;;;;;;18.03;58.88;98154.00;5032350;28;20123;-61
2023/10/07 12:19:17;;;;;;;5.03;2.00;;;;;;;18.14;58.89;98147.38;5032465;28;20045;-60
2023/10/07 12:21:50;;;;;;;5.93;1.98;;;;;;;18.02;59.29;98150.41;5044158;28;20053;-61
2023/10/07 12:24:16;;;;;;;6.75;1.90;;;;;;;18.12;58.43;98155.06;5042922;28;20052;-61
2023/10/07 12:26:47;;;;;;;4.22;1.73;;;;;;;18.27;58.11;98167.88;5039601;28;20578;-62
2023/10/07 12:29:13;;;;;;;6.07;1.88;;;;;;;18.31;58.34;98160.72;5049252;28;20068;-62
2023/10/07 12:31:40;;;;;;;6.05;2.45;;;;;;;18.33;58.21;98163.97;5034952;28;20046;-63
2023/10/07 12:34:09;;;;;;;5.47;1.80;;;;;;;18.30;59.24;98164.56;5041917;28;20091;-59
2023/10/07 12:36:38;;;;;;;5.03;2.17;;;;;;;18.37;59.70;98160.69;5042773;28;20072;-60
2023/10/07 12:39:13;;;;;;;6.50;2.10;;;;;;;18.50;58.13;98159.22;5035977;28;20056;-62
2023/10/07 12:41:43;;;;;;;5.60;2.30;;;;;;;18.54;59.72;98157.56;5044453;28;20055;-61
2023/10/07 12:44:10;;;;;;;5.53;2.40;;;;;;;18.39;58.97;98162.03;5046400;28;20041;-62
2023/10/07 12:46:39;;;;;;;8.68;2.15;;;;;;;18.38;59.56;98156.81;5037497;28;20045;-63
2023/10/07 12:49:09;;;;;;;4.95;1.85;;;;;;;18.26;59.66;98149.78;5038497;28;20049;-63
2023/10/07 12:51:38;;;;;;;6.45;2.35;;;;;;;18.29;60.04;98148.41;5042465;28;20420;-64
2023/10/07 12:54:08;;;;;;;6.88;2.22;;;;;;;18.49;58.75;98149.34;5043328;28;20552;-64